createdAt,value
2022-10-22T00:00:56.154Z,84.27
2022-10-22T00:03:58.222Z,84.46
2022-10-22T00:07:00.183Z,84.37
2022-10-22T00:10:02.390Z,84.02
2022-10-22T00:13:05.189Z,83.57
2022-10-22T00:16:07.589Z,83.20
2022-10-22T00:19:09.654Z,82.73
2022-10-22T00:22:11.935Z,82.03
2022-10-22T00:25:14.076Z,81.02
2022-10-22T00:28:16.144Z,79.93
2022-10-22T00:31:20.171Z,79.12
2022-10-22T00:34:22.993Z,78.65
2022-10-22T00:37:25.066Z,77.94
2022-10-22T00:40:27.098Z,76.44
2022-10-22T00:43:29.101Z,75.64
2022-10-22T00:46:31.246Z,75.11
2022-10-22T00:49:33.317Z,75.02
2022-10-22T00:52:36.058Z,74.98
2022-10-22T00:55:40.015Z,74.91
2022-10-22T00:58:47.312Z,75.09
2022-10-22T01:01:50.440Z,75.30
2022-10-22T01:04:52.392Z,75.15
2022-10-22T01:07:54.655Z,75.60
2022-10-22T01:11:33.953Z,76.95
2022-10-22T01:14:57.453Z,77.54
2022-10-22T01:18:32.712Z,77.94
2022-10-22T01:21:40.195Z,78.10
2022-10-22T01:25:08.154Z,77.85
2022-10-22T01:28:23.540Z,78.00
2022-10-22T01:31:31.473Z,78.02
2022-10-22T01:34:33.807Z,77.87
2022-10-22T01:37:41.825Z,77.71
2022-10-22T01:40:45.712Z,77.49
2022-10-22T01:43:47.853Z,77.05
2022-10-22T01:46:55.453Z,75.76
2022-10-22T01:50:25.733Z,73.51
2022-10-22T01:53:40.348Z,72.54
2022-10-22T01:56:45.346Z,71.68
2022-10-22T02:00:00.773Z,70.52
2022-10-22T02:03:09.866Z,70.00
2022-10-22T02:06:18.969Z,69.79
2022-10-22T02:09:23.195Z,69.12
2022-10-22T02:12:28.917Z,68.70
2022-10-22T02:15:33.334Z,69.11
2022-10-22T02:18:40.345Z,68.95
2022-10-22T02:21:42.589Z,67.94
2022-10-22T02:24:45.020Z,67.98
2022-10-22T02:27:52.520Z,67.96
2022-10-22T02:30:59.019Z,67.66
2022-10-22T02:34:08.917Z,67.03
2022-10-22T02:37:11.320Z,66.84
2022-10-22T02:40:13.604Z,67.04
2022-10-22T02:43:15.592Z,66.79
2022-10-22T02:46:17.665Z,66.82
2022-10-22T02:49:19.709Z,66.91
2022-10-22T02:52:21.755Z,67.38
2022-10-22T02:55:23.760Z,67.00
2022-10-22T02:58:25.924Z,66.96
2022-10-22T03:01:27.979Z,66.95
2022-10-22T03:04:30.185Z,67.42
2022-10-22T03:07:32.158Z,67.48
2022-10-22T03:10:34.160Z,67.31
2022-10-22T03:13:36.061Z,67.23
2022-10-22T03:16:38.053Z,66.81
2022-10-22T03:19:40.001Z,66.38
2022-10-22T03:22:43.826Z,66.50
2022-10-22T03:25:48.612Z,66.35
2022-10-22T03:28:51.300Z,66.56
2022-10-22T03:31:54.924Z,66.75
2022-10-22T03:34:56.930Z,66.70
2022-10-22T03:38:01.557Z,66.65
2022-10-22T03:41:03.992Z,66.88
2022-10-22T03:44:06.287Z,67.30
2022-10-22T03:47:08.539Z,67.73
2022-10-22T03:50:11.077Z,68.12
2022-10-22T03:53:13.113Z,68.47
2022-10-22T03:56:15.123Z,68.72
2022-10-22T03:59:17.497Z,69.03
2022-10-22T04:02:19.655Z,69.23
2022-10-22T04:05:21.590Z,69.30
2022-10-22T04:08:23.669Z,69.20
2022-10-22T04:11:25.725Z,69.43
2022-10-22T04:14:27.821Z,69.52
2022-10-22T04:17:36.676Z,69.77
2022-10-22T04:20:38.688Z,70.05
2022-10-22T04:23:47.421Z,70.13
2022-10-22T04:26:49.415Z,70.24
2022-10-22T04:29:52.382Z,70.24
2022-10-22T04:32:54.371Z,70.04
2022-10-22T04:35:56.359Z,70.46
2022-10-22T04:39:00.747Z,70.82
2022-10-22T04:42:02.934Z,70.96
2022-10-22T04:45:05.103Z,71.30
2022-10-22T04:48:07.288Z,71.76
2022-10-22T04:51:12.197Z,71.84
2022-10-22T04:54:15.060Z,71.93
2022-10-22T04:57:17.255Z,71.96
2022-10-22T05:00:19.289Z,72.58
2022-10-22T05:03:21.246Z,72.54
2022-10-22T05:06:24.517Z,72.78
2022-10-22T05:09:26.432Z,72.73
2022-10-22T05:12:29.766Z,72.74
2022-10-22T05:15:33.648Z,72.66
2022-10-22T05:18:40.512Z,72.38
2022-10-22T05:21:42.486Z,72.24
2022-10-22T05:24:44.578Z,71.97
2022-10-22T05:27:50.027Z,71.56
2022-10-22T05:30:59.408Z,71.27
2022-10-22T05:34:01.636Z,71.24
2022-10-22T05:37:03.900Z,70.89
2022-10-22T05:40:19.505Z,70.90
2022-10-22T05:43:29.303Z,71.01
2022-10-22T05:46:34.881Z,70.90
2022-10-22T05:49:37.925Z,70.91
2022-10-22T05:52:40.089Z,71.02
2022-10-22T05:55:42.294Z,71.21
2022-10-22T05:58:45.238Z,71.32
2022-10-22T06:01:47.305Z,71.42
2022-10-22T06:04:49.269Z,71.35
2022-10-22T06:07:51.289Z,71.01
2022-10-22T06:10:53.364Z,70.94
2022-10-22T06:13:55.380Z,70.81
2022-10-22T06:17:00.495Z,70.89
2022-10-22T06:20:02.770Z,70.92
2022-10-22T06:23:04.841Z,70.83
2022-10-22T06:26:07.926Z,70.84
2022-10-22T06:29:10.826Z,70.93
2022-10-22T06:32:12.794Z,70.88
2022-10-22T06:35:14.905Z,70.72
2022-10-22T06:38:16.939Z,70.51
2022-10-22T06:41:19.437Z,70.13
2022-10-22T06:44:21.854Z,69.69
2022-10-22T06:47:23.960Z,69.10
2022-10-22T06:50:26.054Z,68.35
2022-10-22T06:53:28.067Z,67.80
2022-10-22T06:56:30.195Z,67.67
2022-10-22T06:59:32.654Z,66.92
2022-10-22T07:02:34.717Z,65.34
2022-10-22T07:05:36.918Z,64.36
2022-10-22T07:08:40.419Z,62.75
2022-10-22T07:11:45.433Z,61.50
2022-10-22T07:14:48.727Z,60.93
2022-10-22T07:17:52.163Z,60.32
2022-10-22T07:20:54.735Z,59.16
2022-10-22T07:23:57.866Z,58.18
2022-10-22T07:26:59.890Z,57.29
2022-10-22T07:30:02.574Z,56.99
2022-10-22T07:33:05.364Z,56.14
2022-10-22T07:36:10.995Z,55.79
2022-10-22T07:39:13.414Z,55.42
2022-10-22T07:42:15.580Z,55.95
2022-10-22T07:45:17.692Z,56.09
2022-10-22T07:48:20.319Z,57.17
2022-10-22T07:51:23.145Z,57.64
2022-10-22T07:54:25.249Z,57.97
2022-10-22T07:57:27.534Z,58.42
2022-10-22T08:00:29.723Z,58.46
2022-10-22T08:03:32.357Z,58.85
2022-10-22T08:06:35.009Z,58.39
2022-10-22T08:09:37.145Z,58.26
2022-10-22T08:12:40.169Z,58.58
2022-10-22T08:18:51.393Z,57.70
2022-10-22T08:21:53.272Z,57.29
2022-10-22T08:24:55.289Z,57.25
2022-10-22T08:27:57.353Z,57.25
2022-10-22T08:30:59.813Z,57.43
2022-10-22T08:34:01.832Z,57.57
2022-10-22T08:37:03.848Z,57.70
2022-10-22T08:40:21.900Z,57.82
2022-10-22T08:43:48.768Z,57.95
2022-10-22T08:47:46.509Z,57.99
2022-10-22T08:50:51.736Z,57.82
2022-10-22T08:54:06.076Z,57.53
2022-10-22T09:00:47.792Z,58.18
2022-10-22T09:03:59.316Z,58.23
2022-10-22T09:07:01.286Z,57.96
2022-10-22T09:10:03.931Z,57.91
2022-10-22T09:13:05.908Z,57.70
2022-10-22T09:16:35.664Z,57.37
2022-10-22T09:20:07.303Z,57.43
2022-10-22T09:23:27.798Z,57.35
2022-10-22T09:26:34.132Z,57.35
2022-10-22T09:29:37.188Z,57.39
2022-10-22T09:32:39.953Z,57.21
2022-10-22T09:36:11.516Z,57.22
2022-10-22T09:39:34.173Z,57.17
2022-10-22T09:42:36.095Z,58.25
2022-10-22T09:45:38.030Z,58.81
2022-10-22T09:48:43.102Z,58.97
2022-10-22T09:51:59.869Z,59.19
2022-10-22T09:55:07.149Z,58.83
2022-10-22T09:58:12.833Z,58.67
2022-10-22T10:01:25.076Z,58.23
2022-10-22T10:04:27.308Z,56.54
2022-10-22T10:07:34.086Z,54.89
2022-10-22T10:10:45.591Z,54.63
2022-10-22T10:13:52.828Z,54.59
2022-10-22T10:17:12.494Z,55.49
2022-10-22T10:20:41.115Z,56.42
2022-10-22T10:23:54.542Z,56.32
2022-10-22T10:27:20.319Z,56.45
2022-10-22T10:30:24.184Z,56.75
2022-10-22T10:33:46.295Z,57.29
2022-10-22T10:37:14.610Z,58.16
2022-10-22T10:40:28.610Z,58.69
2022-10-22T10:43:45.831Z,58.65
2022-10-22T10:47:04.261Z,59.07
2022-10-22T10:50:44.642Z,59.55
2022-10-22T10:53:52.327Z,59.49
2022-10-22T10:57:03.282Z,59.52
2022-10-22T11:00:22.115Z,59.76
2022-10-22T11:03:59.026Z,59.72
2022-10-22T11:07:16.749Z,59.95
2022-10-22T11:10:42.081Z,59.94
2022-10-22T11:13:59.252Z,60.14
2022-10-22T11:17:17.157Z,60.30
2022-10-22T11:20:26.479Z,60.64
2022-10-22T11:23:55.998Z,61.04
2022-10-22T11:27:18.546Z,61.09
2022-10-22T11:30:23.894Z,61.11
2022-10-22T11:33:31.542Z,61.04
2022-10-22T11:36:34.482Z,60.78
2022-10-22T11:39:53.806Z,60.93
2022-10-22T11:43:04.912Z,60.88
2022-10-22T11:46:15.654Z,60.71
2022-10-22T11:49:22.666Z,60.24
2022-10-22T11:52:32.671Z,60.06
2022-10-22T11:55:48.117Z,59.96
2022-10-22T11:58:53.937Z,60.03
2022-10-22T12:01:56.832Z,60.11
2022-10-22T12:05:17.941Z,59.86
2022-10-22T12:08:24.241Z,59.78
2022-10-22T12:11:45.281Z,60.11
2022-10-22T12:14:56.778Z,60.40
2022-10-22T12:18:05.992Z,60.17
2022-10-22T12:21:14.102Z,60.37
2022-10-22T12:24:19.319Z,60.57
2022-10-22T12:27:39.159Z,61.02
2022-10-22T12:30:41.578Z,61.28
2022-10-22T12:33:43.712Z,62.39
2022-10-22T12:36:48.218Z,62.91
2022-10-22T12:39:51.471Z,63.54
2022-10-22T12:42:59.303Z,63.95
2022-10-22T12:46:01.351Z,64.37
2022-10-22T12:49:08.774Z,65.14
2022-10-22T12:52:30.957Z,65.04
2022-10-22T12:55:34.485Z,65.76
2022-10-22T12:58:43.054Z,66.20
2022-10-22T13:01:45.824Z,67.06
2022-10-22T13:05:06.345Z,67.09
2022-10-22T13:08:17.004Z,67.66
2022-10-22T13:11:21.402Z,68.21
2022-10-22T13:14:26.174Z,68.17
2022-10-22T13:17:41.089Z,68.64
2022-10-22T13:20:54.283Z,68.76
2022-10-22T13:24:02.280Z,69.15
2022-10-22T13:27:04.668Z,69.63
2022-10-22T13:30:19.343Z,70.93
2022-10-22T13:33:27.088Z,72.87
2022-10-22T13:36:29.520Z,74.19
2022-10-22T13:39:32.884Z,76.40
2022-10-22T13:42:36.154Z,77.71
2022-10-22T13:45:38.220Z,81.94
2022-10-22T13:48:40.923Z,83.11
2022-10-22T13:51:43.819Z,85.06
2022-10-22T13:54:46.036Z,84.95
2022-10-22T13:57:48.627Z,87.10
2022-10-22T14:00:55.911Z,87.91
2022-10-22T14:04:02.190Z,88.73
2022-10-22T14:07:04.596Z,89.83
2022-10-22T14:10:24.352Z,90.05
2022-10-22T14:13:26.778Z,89.73
2022-10-22T14:16:32.851Z,90.63
2022-10-22T14:19:35.128Z,91.08
2022-10-22T14:22:37.111Z,91.62
2022-10-22T14:25:39.157Z,91.78
2022-10-22T14:29:04.354Z,92.48
2022-10-22T14:32:03.465Z,93.23
2022-10-22T14:35:06.249Z,92.92
2022-10-22T14:38:09.816Z,92.32
2022-10-22T14:41:24.017Z,92.54
2022-10-22T14:44:26.184Z,92.71
2022-10-22T14:47:28.322Z,92.88
2022-10-22T14:50:30.355Z,92.88
2022-10-22T14:53:32.325Z,92.69
2022-10-22T14:56:34.582Z,92.72
2022-10-22T14:59:36.886Z,92.76
2022-10-22T15:02:39.179Z,93.12
2022-10-22T15:05:44.821Z,93.43
2022-10-22T15:08:47.648Z,93.07
2022-10-22T15:11:50.523Z,93.74
2022-10-22T15:14:52.748Z,93.70
2022-10-22T15:17:55.185Z,93.51
2022-10-22T15:21:00.462Z,93.58
2022-10-22T15:24:03.076Z,93.61
2022-10-22T15:27:05.519Z,93.65
2022-10-22T15:30:08.852Z,94.01
2022-10-22T15:33:11.551Z,94.15
2022-10-22T15:36:16.595Z,94.28
2022-10-22T15:39:19.185Z,94.09
2022-10-22T15:42:23.554Z,93.92
2022-10-22T15:45:26.152Z,94.54
2022-10-22T15:48:28.662Z,94.94
2022-10-22T15:51:31.549Z,94.92
2022-10-22T15:54:34.643Z,95.00
2022-10-22T15:57:38.387Z,94.86
2022-10-22T16:00:41.123Z,94.97
2022-10-22T16:03:43.897Z,95.18
2022-10-22T16:06:54.585Z,95.55
2022-10-22T16:09:58.415Z,95.33
2022-10-22T16:13:00.869Z,95.53
2022-10-22T16:16:08.167Z,95.25
2022-10-22T16:19:17.087Z,95.55
2022-10-22T16:22:19.874Z,95.52
2022-10-22T16:25:25.142Z,95.57
2022-10-22T16:28:28.416Z,95.57
2022-10-22T16:31:31.448Z,95.68
2022-10-22T16:34:34.497Z,95.85
2022-10-22T16:37:36.953Z,95.87
2022-10-22T16:40:42.759Z,95.94
2022-10-22T16:43:48.872Z,96.04
2022-10-22T16:46:53.204Z,96.13
2022-10-22T16:49:55.760Z,95.89
2022-10-22T16:52:58.691Z,96.09
2022-10-22T16:56:02.159Z,96.32
2022-10-22T16:59:06.821Z,96.01
2022-10-22T17:02:12.944Z,96.17
2022-10-22T17:05:16.268Z,96.20
2022-10-22T17:08:20.336Z,96.33
2022-10-22T17:11:24.673Z,96.29
2022-10-22T17:14:28.783Z,96.50
2022-10-22T17:17:32.936Z,96.82
2022-10-22T17:20:36.366Z,96.80
2022-10-22T17:23:40.066Z,96.99
2022-10-22T17:26:45.285Z,97.00
2022-10-22T17:29:48.374Z,97.09
2022-10-22T17:32:51.544Z,97.25
2022-10-22T17:35:58.827Z,97.24
2022-10-22T17:39:03.984Z,97.28
2022-10-22T17:42:06.785Z,97.32
2022-10-22T17:45:10.098Z,97.36
2022-10-22T17:48:13.138Z,97.27
2022-10-22T17:51:18.211Z,97.45
2022-10-22T17:54:22.911Z,97.49
2022-10-22T17:57:27.887Z,97.56
2022-10-22T18:00:33.028Z,97.63
2022-10-22T18:03:36.450Z,97.56
2022-10-22T18:06:39.576Z,97.50
2022-10-22T18:09:43.042Z,97.71
2022-10-22T18:12:47.149Z,97.87
2022-10-22T18:15:56.923Z,98.19
2022-10-22T18:19:01.224Z,98.62
2022-10-22T18:22:06.878Z,98.77
2022-10-22T18:25:10.497Z,98.42
2022-10-22T18:28:14.520Z,98.40
2022-10-22T18:31:20.878Z,98.51
2022-10-22T18:34:25.214Z,98.46
2022-10-22T18:37:31.238Z,98.58
2022-10-22T18:40:45.703Z,98.63
2022-10-22T18:43:57.703Z,98.62
2022-10-22T18:47:04.684Z,98.66
2022-10-22T18:50:14.447Z,98.59
2022-10-22T18:53:22.553Z,98.62
2022-10-22T18:56:26.876Z,98.94
2022-10-22T18:59:31.630Z,99.10
2022-10-22T19:02:34.556Z,99.08
2022-10-22T19:05:54.313Z,98.88
2022-10-22T19:09:01.514Z,99.00
2022-10-22T19:12:05.248Z,99.01
2022-10-22T19:15:09.273Z,99.07
2022-10-22T19:18:13.501Z,99.13
2022-10-22T19:21:35.850Z,99.23
2022-10-22T19:24:39.217Z,99.29
2022-10-22T19:27:45.813Z,99.40
2022-10-22T19:30:50.492Z,99.58
2022-10-22T19:33:55.453Z,99.58
2022-10-22T19:36:58.871Z,99.80
2022-10-22T19:40:02.259Z,99.83
2022-10-22T19:43:05.803Z,99.89
2022-10-22T19:46:10.559Z,100.00
2022-10-22T19:49:15.444Z,100.00
2022-10-22T19:52:20.183Z,100.00
2022-10-22T19:55:23.643Z,100.00
2022-10-22T19:58:27.740Z,100.00
2022-10-22T20:01:33.758Z,100.00
2022-10-22T20:04:36.927Z,100.00
2022-10-22T20:07:39.626Z,100.00
2022-10-22T20:10:43.291Z,100.00
2022-10-22T20:13:49.611Z,100.00
2022-10-22T20:16:55.273Z,100.00
2022-10-22T20:19:59.589Z,100.00
2022-10-22T20:23:02.158Z,100.00
2022-10-22T20:26:05.970Z,100.00
2022-10-22T20:29:08.563Z,99.97
2022-10-22T20:32:12.695Z,100.00
2022-10-22T20:35:16.691Z,100.00
2022-10-22T20:38:19.638Z,100.00
2022-10-22T20:41:23.421Z,100.00
2022-10-22T20:44:26.361Z,100.00
2022-10-22T20:47:39.304Z,100.00
2022-10-22T20:50:54.296Z,100.00
2022-10-22T20:53:57.310Z,100.00
2022-10-22T20:56:59.883Z,100.00
2022-10-22T21:00:02.048Z,100.00
2022-10-22T21:03:04.075Z,100.00
2022-10-22T21:06:06.650Z,100.00
2022-10-22T21:09:14.147Z,100.00
2022-10-22T21:12:16.267Z,100.00
2022-10-22T21:15:18.302Z,100.00
2022-10-22T21:18:20.471Z,100.00
2022-10-22T21:21:22.484Z,100.00
2022-10-22T21:24:26.387Z,100.00
2022-10-22T21:27:28.473Z,100.00
2022-10-22T21:30:30.528Z,100.00
2022-10-22T21:33:38.132Z,100.00
2022-10-22T21:36:41.232Z,100.00
2022-10-22T21:39:44.549Z,100.00
2022-10-22T21:42:46.869Z,100.00
2022-10-22T21:45:48.914Z,100.00
2022-10-22T21:48:59.356Z,100.00
2022-10-22T21:52:02.858Z,100.00
2022-10-22T21:55:05.330Z,100.00
2022-10-22T21:58:08.448Z,100.00
2022-10-22T22:01:12.151Z,100.00
2022-10-22T22:04:14.129Z,100.00
2022-10-22T22:07:16.184Z,100.00
2022-10-22T22:10:18.291Z,100.00
2022-10-22T22:13:25.004Z,100.00
2022-10-22T22:16:30.119Z,100.00
2022-10-22T22:19:32.124Z,100.00
2022-10-22T22:22:34.031Z,100.00
2022-10-22T22:25:36.040Z,100.00
2022-10-22T22:28:38.254Z,100.00
2022-10-22T22:31:40.430Z,100.00
2022-10-22T22:34:42.423Z,100.00
2022-10-22T22:37:44.599Z,100.00
2022-10-22T22:40:46.575Z,100.00
2022-10-22T22:43:48.678Z,100.00
2022-10-22T22:46:50.665Z,100.00
2022-10-22T22:49:52.613Z,100.00
2022-10-22T22:52:54.664Z,100.00
2022-10-22T22:56:18.509Z,100.00
2022-10-22T22:59:20.611Z,100.00
2022-10-22T23:02:41.278Z,100.00
2022-10-22T23:05:43.509Z,100.00
2022-10-22T23:08:49.398Z,100.00
2022-10-22T23:11:51.834Z,100.00
2022-10-22T23:14:53.780Z,100.00
2022-10-22T23:17:55.808Z,100.00
2022-10-22T23:20:57.766Z,100.00
2022-10-22T23:24:02.233Z,100.00
2022-10-22T23:27:04.406Z,100.00
2022-10-22T23:30:07.047Z,100.00
2022-10-22T23:33:11.900Z,100.00
2022-10-22T23:36:14.552Z,100.00
2022-10-22T23:39:19.524Z,100.00
2022-10-22T23:42:21.483Z,100.00
2022-10-22T23:45:23.527Z,100.00
2022-10-22T23:48:25.577Z,100.00
2022-10-22T23:51:27.967Z,100.00
2022-10-22T23:54:29.976Z,100.00
2022-10-22T23:57:31.924Z,100.00
